Time;durP1;ratioP1;P1;durP2;ratioP2;P2;SDS_P1;SDS_P2;PMS_P1;PMS_P2;Temp;Humidity;BMP_temperature;BMP_pressure;BME280_temperature;BME280_humidity;BME280_pressure;Samples;Min_cycle;Max_cycle;Signal;HPM_P1;HPM_P2
2023/01/07 00:02:17;;;;;;;21.60;13.40;;;;;;;4.96;92.21;100432.09;125055;1313;107587;-71
2023/01/07 00:05:23;;;;;;;21.50;13.30;;;;;;;4.96;91.96;100432.11;125194;1311;107632;-71
2023/01/07 00:08:31;;;;;;;26.60;15.80;;;;;;;5.01;92.04;100435.25;125129;1305;107694;-71
2023/01/07 00:11:39;;;;;;;25.70;14.50;;;;;;;5.00;91.87;100433.52;125148;1311;107393;-71
2023/01/07 00:14:44;;;;;;;20.80;12.60;;;;;;;4.98;91.50;100437.39;125141;1313;107555;-71
2023/01/07 00:17:50;;;;;;;20.00;13.00;;;;;;;4.98;92.44;100431.61;125237;1312;106711;-71
2023/01/07 00:20:58;;;;;;;20.30;12.30;;;;;;;5.00;91.42;100428.60;125141;1313;106580;-71
2023/01/07 00:24:05;;;;;;;21.90;14.30;;;;;;;5.10;90.90;100429.79;125180;1312;107399;-71
2023/01/07 00:27:11;;;;;;;23.90;14.70;;;;;;;5.18;91.12;100432.40;125150;1312;107539;-71
2023/01/07 00:30:17;;;;;;;21.60;14.30;;;;;;;5.18;90.75;100433.60;125158;1310;108098;-71
2023/01/07 00:33:27;;;;;;;21.70;13.30;;;;;;;5.20;90.45;100431.91;125145;1308;108016;-71
2023/01/07 00:36:34;;;;;;;20.10;12.80;;;;;;;5.22;90.38;100440.06;125140;1312;107534;-71
2023/01/07 00:39:39;;;;;;;22.60;14.10;;;;;;;5.23;90.83;100438.37;125151;1313;107551;-71
2023/01/07 00:42:56;;;;;;;25.00;14.70;;;;;;;5.27;90.69;100441.95;125176;1310;107396;-71
2023/01/07 00:46:02;;;;;;;22.40;14.40;;;;;;;5.33;90.52;100448.39;125163;1312;107468;-71
2023/01/07 00:49:08;;;;;;;22.10;15.20;;;;;;;5.37;90.34;100451.45;125166;1310;107669;-71
2023/01/07 00:52:13;;;;;;;19.80;12.80;;;;;;;5.37;90.99;100456.23;125136;1313;107398;-71
2023/01/07 00:55:19;;;;;;;20.00;12.60;;;;;;;5.32;91.20;100457.08;125101;1313;107734;-71
2023/01/07 00:58:26;;;;;;;20.10;12.50;;;;;;;5.32;90.93;100452.32;125036;1313;107624;-71
2023/01/07 01:01:31;;;;;;;22.40;13.80;;;;;;;5.37;90.79;100454.45;125180;1313;107546;-72
2023/01/07 01:04:37;;;;;;;22.80;14.60;;;;;;;5.39;90.84;100457.83;125133;1309;107582;-71
2023/01/07 01:07:43;;;;;;;20.60;13.80;;;;;;;5.40;90.84;100462.82;125045;1312;107589;-71
2023/01/07 01:10:49;;;;;;;19.30;12.20;;;;;;;5.43;90.48;100457.29;125220;1316;107559;-71
2023/01/07 01:13:54;;;;;;;20.10;11.90;;;;;;;5.47;90.44;100468.48;125119;1313;107657;-72
2023/01/07 01:17:00;;;;;;;19.70;11.70;;;;;;;5.52;90.70;100476.48;125145;1312;107302;-71
2023/01/07 01:20:08;;;;;;;18.60;12.50;;;;;;;5.57;90.52;100473.64;125136;1305;107033;-71
2023/01/07 01:23:14;;;;;;;19.10;12.70;;;;;;;5.63;90.73;100473.31;125178;1303;107572;-70
2023/01/07 01:26:20;;;;;;;20.80;13.20;;;;;;;5.64;90.33;100470.75;125153;1312;107556;-71
2023/01/07 01:29:26;;;;;;;21.20;13.10;;;;;;;5.62;90.47;100471.77;125062;1313;107668;-71
2023/01/07 01:32:32;;;;;;;19.20;11.70;;;;;;;5.57;90.40;100476.39;125061;1313;107570;-71
2023/01/07 01:35:41;;;;;;;16.40;10.50;;;;;;;5.55;90.43;100476.20;125194;1316;107539;-71
2023/01/07 01:38:47;;;;;;;16.50;10.90;;;;;;;5.58;90.27;100478.41;125205;1303;108727;-71
2023/01/07 01:41:53;;;;;;;15.70;10.80;;;;;;;5.61;90.37;100477.21;125211;1312;107570;-71
2023/01/07 01:45:00;;;;;;;16.60;10.80;;;;;;;5.63;90.28;100469.63;125107;1313;107679;-71
2023/01/07 01:48:19;;;;;;;17.20;10.70;;;;;;;5.63;90.29;100467.48;125156;1313;108667;-71
2023/01/07 01:51:33;;;;;;;18.70;10.10;;;;;;;5.60;90.22;100468.75;125154;1313;108729;-71
2023/01/07 01:54:41;;;;;;;13.60;8.60;;;;;;;5.58;90.07;100469.85;125223;1312;108666;-72
2023/01/07 01:57:49;;;;;;;14.30;9.30;;;;;;;5.58;90.25;100470.00;125357;1311;107817;-71
2023/01/07 02:00:55;;;;;;;15.90;10.00;;;;;;;5.60;89.99;100462.79;125263;1307;107516;-71
2023/01/07 02:04:04;;;;;;;13.90;9.40;;;;;;;5.60;90.08;100464.39;125276;1312;107227;-71
2023/01/07 02:07:14;;;;;;;17.60;10.10;;;;;;;5.54;90.35;100462.34;125184;1313;107596;-71
2023/01/07 02:10:25;;;;;;;16.40;9.70;;;;;;;5.49;89.97;100460.59;125294;1309;107585;-72
2023/01/07 02:13:42;;;;;;;15.80;9.50;;;;;;;5.46;90.04;100456.36;125373;1312;107528;-71
2023/01/07 02:16:57;;;;;;;13.30;8.10;;;;;;;5.42;90.27;100454.09;125175;1302;108665;-71
2023/01/07 02:20:28;;;;;;;33.50;17.70;;;;;;;5.42;90.41;100454.23;125172;1311;108721;-71
2023/01/07 02:23:56;;;;;;;21.30;13.00;;;;;;;5.46;90.17;100458.67;125005;1309;107663;-71
2023/01/07 02:27:24;;;;;;;31.30;16.70;;;;;;;5.50;90.09;100458.90;125132;1312;108670;-72
2023/01/07 02:30:55;;;;;;;16.50;9.70;;;;;;;5.55;89.84;100456.64;125236;1313;107646;-71
2023/01/07 02:34:04;;;;;;;14.40;8.60;;;;;;;5.59;89.88;100459.14;125113;1313;107584;-71
2023/01/07 02:37:17;;;;;;;15.00;8.60;;;;;;;5.61;89.92;100461.13;125048;1312;107562;-71
2023/01/07 02:40:27;;;;;;;11.00;7.90;;;;;;;5.65;89.98;100459.52;125192;1312;107770;-71
2023/01/07 02:43:42;;;;;;;14.10;8.70;;;;;;;5.70;89.76;100459.18;125174;1312;107466;-71
2023/01/07 02:46:54;;;;;;;14.10;9.20;;;;;;;5.76;89.69;100467.23;125009;1305;108802;-71
2023/01/07 02:49:58;;;;;;;;;;;;;;;5.79;89.55;100469.14;125217;1313;107420;-72
2023/01/07 02:53:05;;;;;;;16.50;9.20;;;;;;;5.79;89.50;100473.52;125133;1312;107309;-72
2023/01/07 02:56:24;;;;;;;15.60;8.80;;;;;;;5.79;89.63;100472.41;125177;1312;107676;-71
2023/01/07 02:59:48;;;;;;;14.50;8.10;;;;;;;5.78;89.54;100471.12;125172;1312;108152;-71
2023/01/07 03:03:24;;;;;;;12.10;7.40;;;;;;;5.77;89.53;100469.04;125263;1303;108691;-71
2023/01/07 03:06:43;;;;;;;10.30;7.10;;;;;;;5.79;89.32;100466.83;125328;1303;107646;-71
2023/01/07 03:10:00;;;;;;;14.00;8.80;;;;;;;5.82;89.44;100467.83;125190;1312;107841;-71
2023/01/07 03:13:11;;;;;;;12.60;9.00;;;;;;;5.84;89.42;100466.79;125176;1297;107552;-71
2023/01/07 03:16:22;;;;;;;15.70;8.80;;;;;;;5.85;89.42;100470.20;125204;1312;107405;-72
2023/01/07 03:19:32;;;;;;;12.60;8.00;;;;;;;5.85;89.19;100477.07;125058;1303;107505;-71
2023/01/07 03:22:41;;;;;;;16.60;9.20;;;;;;;5.83;89.09;100485.05;125117;1310;107601;-71
2023/01/07 03:25:51;;;;;;;15.60;8.50;;;;;;;5.80;89.32;100483.34;125175;1311;107487;-71
2023/01/07 03:29:01;;;;;;;14.90;9.40;;;;;;;5.77;89.09;100485.67;125134;1311;107504;-71
2023/01/07 03:32:12;;;;;;;15.10;9.60;;;;;;;5.76;89.19;100486.27;125168;1309;107492;-71
2023/01/07 03:35:20;;;;;;;16.60;9.90;;;;;;;5.75;89.18;100483.89;125222;1312;106508;-71
2023/01/07 03:38:27;;;;;;;18.50;10.70;;;;;;;5.73;89.06;100485.66;125215;1313;107714;-71
2023/01/07 03:44:58;;;;;;;16.00;9.40;;;;;;;5.64;88.94;100478.84;125192;1313;107574;-71
2023/01/07 03:48:06;;;;;;;14.20;9.30;;;;;;;5.60;88.58;100479.21;125222;1311;107267;-71
2023/01/07 03:51:14;;;;;;;12.70;8.10;;;;;;;5.54;88.80;100481.08;125160;1312;106479;-71
2023/01/07 03:54:22;;;;;;;13.80;8.00;;;;;;;5.48;88.64;100484.98;125128;1303;107506;-70
2023/01/07 03:57:28;;;;;;;11.10;7.40;;;;;;;5.41;88.48;100477.93;124960;1308;106739;-71
2023/01/07 04:00:34;;;;;;;12.40;8.00;;;;;;;5.33;88.22;100477.80;125061;1312;107477;-71
2023/01/07 04:03:47;;;;;;;11.20;7.20;;;;;;;5.28;88.34;100477.52;125020;1305;108175;-71
2023/01/07 04:06:53;;;;;;;11.40;7.00;;;;;;;5.21;88.23;100480.98;125159;1312;107454;-71
2023/01/07 04:09:59;;;;;;;10.90;7.50;;;;;;;5.14;88.12;100484.20;125158;1316;109265;-70
2023/01/07 04:13:05;;;;;;;10.20;7.30;;;;;;;5.04;88.11;100482.40;125147;1312;107524;-71
2023/01/07 04:16:10;;;;;;;11.10;8.10;;;;;;;4.96;87.89;100479.66;125028;1303;108685;-70
2023/01/07 04:19:16;;;;;;;11.70;7.30;;;;;;;4.85;87.86;100477.09;125058;1310;108211;-70
2023/01/07 04:22:22;;;;;;;15.40;8.00;;;;;;;4.77;88.03;100482.61;125072;1309;106293;-71
2023/01/07 04:25:28;;;;;;;11.90;8.10;;;;;;;4.70;87.86;100483.80;125018;1309;108094;-70
2023/01/07 04:28:34;;;;;;;8.80;6.50;;;;;;;4.67;87.89;100484.37;125172;1306;109306;-73
2023/01/07 04:31:39;;;;;;;12.10;7.10;;;;;;;4.65;87.76;100489.81;125184;1310;107435;-71
2023/01/07 04:34:45;;;;;;;10.30;6.70;;;;;;;4.60;87.48;100496.84;125060;1312;107634;-70
2023/01/07 04:37:51;;;;;;;12.80;8.40;;;;;;;4.54;87.42;100500.10;125063;1310;108199;-71
2023/01/07 04:40:57;;;;;;;15.60;10.20;;;;;;;4.48;87.42;100503.38;125215;1309;107919;-70
2023/01/07 04:44:02;;;;;;;77.50;47.10;;;;;;;4.42;87.63;100511.71;125150;1309;107595;-70
2023/01/07 04:47:08;;;;;;;51.70;30.50;;;;;;;4.40;87.86;100509.75;125196;1309;107606;-70
2023/01/07 04:50:14;;;;;;;22.20;13.60;;;;;;;4.40;87.85;100507.11;125155;1311;107581;-70
2023/01/07 04:53:19;;;;;;;13.90;7.60;;;;;;;4.44;87.85;100512.98;125063;1310;107539;-70
2023/01/07 04:56:26;;;;;;;11.70;7.00;;;;;;;4.49;87.81;100517.71;125052;1312;107320;-71
2023/01/07 04:59:31;;;;;;;11.10;6.60;;;;;;;4.55;87.77;100520.09;125180;1309;108148;-71
2023/01/07 05:02:39;;;;;;;9.70;6.20;;;;;;;4.60;87.62;100516.92;125113;1307;107534;-70
2023/01/07 05:05:45;;;;;;;10.30;6.40;;;;;;;4.62;87.31;100517.16;125194;1310;106667;-71
2023/01/07 05:08:50;;;;;;;10.50;6.20;;;;;;;4.62;87.31;100521.54;125073;1309;107317;-71
2023/01/07 05:11:56;;;;;;;9.30;6.30;;;;;;;4.61;87.30;100525.17;125121;1312;108164;-70
2023/01/07 05:15:02;;;;;;;10.60;6.40;;;;;;;4.58;87.23;100524.34;125174;1315;107676;-70
2023/01/07 05:18:08;;;;;;;12.00;7.60;;;;;;;4.56;87.14;100526.04;125026;1310;107489;-70
2023/01/07 05:21:15;;;;;;;8.30;4.80;;;;;;;4.54;87.12;100517.55;125219;1294;107531;-73
2023/01/07 05:24:22;;;;;;;18.00;10.00;;;;;;;4.53;87.50;100514.40;125177;1309;107521;-71
2023/01/07 05:27:27;;;;;;;39.20;20.20;;;;;;;4.56;87.42;100519.86;125182;1312;107379;-70
2023/01/07 05:30:33;;;;;;;41.70;24.60;;;;;;;4.62;87.54;100520.00;125023;1309;108591;-71
2023/01/07 05:33:39;;;;;;;28.90;16.50;;;;;;;4.67;87.70;100520.88;125037;1312;108025;-70
2023/01/07 05:36:44;;;;;;;35.40;20.70;;;;;;;4.70;87.92;100516.05;125053;1302;107535;-71
2023/01/07 05:39:50;;;;;;;26.50;14.60;;;;;;;4.74;87.96;100514.77;125104;1309;108235;-70
2023/01/07 05:42:57;;;;;;;40.70;21.80;;;;;;;4.76;88.05;100516.88;125059;1311;108184;-70
2023/01/07 05:46:06;;;;;;;24.50;14.00;;;;;;;4.83;88.34;100516.91;125063;1315;109358;-73
2023/01/07 05:49:11;;;;;;;18.70;11.10;;;;;;;4.91;88.30;100517.73;125070;1309;107539;-70
2023/01/07 05:52:17;;;;;;;15.60;9.30;;;;;;;4.98;88.32;100524.33;125032;1309;109149;-71
2023/01/07 05:55:23;;;;;;;14.10;9.10;;;;;;;5.00;88.04;100524.14;125190;1309;108195;-70
2023/01/07 05:58:29;;;;;;;13.10;7.90;;;;;;;4.98;87.81;100525.20;125210;1315;107379;-70
2023/01/07 06:01:34;;;;;;;13.30;8.80;;;;;;;4.90;87.69;100520.23;125081;1309;107489;-71
2023/01/07 06:04:40;;;;;;;11.70;7.60;;;;;;;4.81;87.77;100520.98;125053;1310;107561;-70
2023/01/07 06:07:45;;;;;;;12.00;7.30;;;;;;;4.69;87.78;100525.83;125200;1309;107585;-70
2023/01/07 06:10:51;;;;;;;13.20;7.40;;;;;;;4.60;87.43;100530.66;125041;1303;107616;-73
2023/01/07 06:13:56;;;;;;;14.60;8.90;;;;;;;4.52;87.27;100527.18;125170;1309;107545;-70
2023/01/07 06:17:02;;;;;;;12.70;8.40;;;;;;;4.49;87.26;100523.51;125042;1315;107195;-71
2023/01/07 06:20:09;;;;;;;24.00;14.20;;;;;;;4.48;87.38;100522.00;125219;1304;108625;-71
2023/01/07 06:23:15;;;;;;;18.80;11.20;;;;;;;4.45;87.39;100527.67;125089;1311;107412;-71
2023/01/07 06:26:21;;;;;;;16.80;9.80;;;;;;;4.41;87.34;100530.61;125189;1309;108095;-71
2023/01/07 06:29:26;;;;;;;16.00;10.00;;;;;;;4.38;87.16;100535.23;125160;1310;108010;-71
2023/01/07 06:32:36;;;;;;;19.50;11.60;;;;;;;4.34;87.25;100538.30;125176;1316;107548;-71
2023/01/07 06:35:42;;;;;;;15.30;10.70;;;;;;;4.31;87.53;100540.59;125138;1309;108012;-71
2023/01/07 06:38:48;;;;;;;30.30;18.10;;;;;;;4.31;87.67;100539.40;125153;1306;107518;-71
2023/01/07 06:41:53;;;;;;;32.60;22.40;;;;;;;4.32;87.64;100540.76;125252;1312;107546;-71
2023/01/07 06:44:59;;;;;;;23.90;15.70;;;;;;;4.30;87.61;100537.19;125212;1308;107662;-71
2023/01/07 06:48:05;;;;;;;27.60;18.40;;;;;;;4.30;87.64;100544.24;125171;1310;107561;-71
2023/01/07 06:51:10;;;;;;;33.60;20.80;;;;;;;4.31;87.84;100552.42;125084;1310;107578;-71
2023/01/07 06:54:16;;;;;;;35.60;20.90;;;;;;;4.32;88.35;100569.59;125198;1309;107528;-73
2023/01/07 06:57:22;;;;;;;30.80;19.40;;;;;;;4.35;88.60;100572.44;125154;1311;107397;-76
2023/01/07 07:00:27;;;;;;;30.70;18.20;;;;;;;4.40;88.68;100575.06;125171;1316;107637;-76
2023/01/07 07:03:33;;;;;;;42.10;24.50;;;;;;;4.48;88.70;100583.84;125159;1307;108675;-80
2023/01/07 07:06:38;;;;;;;38.70;22.80;;;;;;;4.58;88.79;100586.54;125276;1310;109271;-80
2023/01/07 07:09:44;;;;;;;31.20;19.90;;;;;;;4.69;88.80;100589.11;125250;1312;107114;-77
2023/01/07 07:12:50;;;;;;;34.60;22.20;;;;;;;4.83;88.74;100593.61;125327;1310;107694;-77
2023/01/07 07:15:55;;;;;;;38.00;26.40;;;;;;;4.93;88.78;100599.75;125204;1310;107781;-77
2023/01/07 07:19:01;;;;;;;31.70;21.70;;;;;;;5.01;88.79;100603.21;125188;1312;108614;-77
2023/01/07 07:22:07;;;;;;;38.10;24.70;;;;;;;5.08;88.91;100604.66;125295;1307;106752;-77
2023/01/07 07:25:12;;;;;;;38.70;24.20;;;;;;;5.14;88.81;100609.41;125193;1312;107764;-77
2023/01/07 07:28:18;;;;;;;25.10;14.70;;;;;;;5.19;88.77;100613.77;125361;1302;107440;-77
2023/01/07 07:31:24;;;;;;;27.10;16.70;;;;;;;5.26;89.25;100616.44;125377;1312;106754;-77
2023/01/07 07:34:29;;;;;;;30.30;19.20;;;;;;;5.38;88.97;100616.70;125371;1312;107270;-78
2023/01/07 07:37:35;;;;;;;58.30;37.40;;;;;;;5.47;89.06;100613.84;125290;1309;108097;-78
2023/01/07 07:40:41;;;;;;;51.50;34.20;;;;;;;5.56;89.16;100609.73;125228;1308;107578;-77
2023/01/07 07:43:46;;;;;;;63.60;42.30;;;;;;;5.64;89.02;100613.19;125306;1310;107597;-77
2023/01/07 07:46:52;;;;;;;46.90;29.60;;;;;;;5.68;89.20;100605.48;125206;1310;107535;-77
2023/01/07 07:49:57;;;;;;;49.80;29.10;;;;;;;5.72;89.21;100608.39;125235;1316;108705;-77
2023/01/07 07:53:03;;;;;;;32.60;19.30;;;;;;;5.78;89.25;100604.41;125379;1309;107570;-77
2023/01/07 07:56:10;;;;;;;66.90;39.40;;;;;;;5.86;88.93;100602.38;125285;1310;108571;-77
2023/01/07 07:59:15;;;;;;;52.20;31.30;;;;;;;5.90;89.18;100595.37;125319;1311;107557;-77
2023/01/07 08:02:21;;;;;;;58.80;34.70;;;;;;;5.96;89.38;100599.36;125177;1312;212510;-76
2023/01/07 08:05:27;;;;;;;175.60;95.90;;;;;;;6.02;89.15;100598.23;125230;1307;107556;-77
2023/01/07 08:08:33;;;;;;;169.90;86.20;;;;;;;6.06;89.38;100601.60;125145;1316;107712;-78
2023/01/07 08:11:38;;;;;;;196.50;93.30;;;;;;;6.13;89.27;100603.63;125247;1316;108694;-77
2023/01/07 08:14:44;;;;;;;535.50;263.20;;;;;;;6.19;89.30;100603.66;125363;1310;107692;-77
2023/01/07 08:17:56;;;;;;;247.40;103.70;;;;;;;6.26;89.50;100601.67;125238;1310;106268;-77
2023/01/07 08:21:01;;;;;;;126.10;65.20;;;;;;;6.36;89.38;100605.89;125258;1308;107398;-76
2023/01/07 08:24:07;;;;;;;73.70;38.30;;;;;;;6.43;89.34;100610.88;125209;1307;108667;-77
2023/01/07 08:27:13;;;;;;;45.40;26.00;;;;;;;6.46;89.31;100608.66;125319;1316;107534;-76
2023/01/07 08:30:19;;;;;;;32.70;18.70;;;;;;;6.49;89.50;100602.45;125261;1312;106295;-76
2023/01/07 08:33:24;;;;;;;28.60;17.10;;;;;;;6.54;89.39;100603.98;125182;1315;107293;-78
2023/01/07 08:36:30;;;;;;;29.50;17.90;;;;;;;6.60;89.58;100609.01;125135;1302;108812;-77
2023/01/07 08:39:36;;;;;;;27.10;16.90;;;;;;;6.69;89.53;100612.89;125163;1316;107541;-78
2023/01/07 08:42:41;;;;;;;24.90;15.90;;;;;;;6.79;89.28;100608.58;125280;1316;107586;-78
2023/01/07 08:45:51;;;;;;;30.50;19.40;;;;;;;6.88;89.42;100613.71;125103;1316;107601;-78
2023/01/07 08:48:57;;;;;;;28.90;16.80;;;;;;;6.94;89.13;100610.95;125205;1316;107572;-77
2023/01/07 08:52:02;;;;;;;30.60;16.40;;;;;;;6.98;89.31;100614.00;125304;1312;107591;-77
2023/01/07 08:55:08;;;;;;;26.20;14.50;;;;;;;7.03;89.27;100611.45;125166;1312;107701;-77
2023/01/07 08:58:14;;;;;;;26.30;15.40;;;;;;;7.12;89.22;100618.40;125224;1308;107803;-76
2023/01/07 09:01:20;;;;;;;26.20;15.90;;;;;;;7.21;89.39;100623.49;125109;1312;107673;-76
2023/01/07 09:04:25;;;;;;;29.60;16.90;;;;;;;7.28;89.13;100623.83;125114;1310;107711;-77
2023/01/07 09:07:31;;;;;;;29.70;17.10;;;;;;;7.29;89.10;100618.61;125302;1313;107614;-77
2023/01/07 09:10:36;;;;;;;31.10;19.70;;;;;;;7.32;88.95;100615.77;125308;1316;107557;-77
2023/01/07 09:13:42;;;;;;;54.10;32.60;;;;;;;7.31;89.02;100617.26;125263;1308;108276;-76
2023/01/07 09:16:47;;;;;;;24.20;14.30;;;;;;;7.30;88.85;100617.53;125187;1316;107223;-75
2023/01/07 09:19:53;;;;;;;28.60;16.60;;;;;;;7.30;88.96;100615.56;125168;1313;107604;-75
2023/01/07 09:22:59;;;;;;;55.70;38.70;;;;;;;7.34;89.11;100615.20;125161;1312;107571;-75
2023/01/07 09:26:04;;;;;;;44.40;30.90;;;;;;;7.40;88.91;100614.56;125118;1316;107665;-75
2023/01/07 09:29:10;;;;;;;35.20;22.80;;;;;;;7.44;88.82;100613.02;125288;1316;108701;-75
2023/01/07 09:32:16;;;;;;;36.40;23.70;;;;;;;7.45;89.05;100611.52;125325;1316;107521;-75
2023/01/07 09:35:21;;;;;;;35.00;20.70;;;;;;;7.46;88.99;100607.52;125287;1313;108399;-77
2023/01/07 09:38:28;;;;;;;32.50;21.10;;;;;;;7.50;89.01;100607.70;125120;1316;107529;-75
2023/01/07 09:41:44;;;;;;;52.80;34.40;;;;;;;7.58;89.16;100603.05;125147;1316;108620;-76
2023/01/07 09:45:02;;;;;;;55.40;36.90;;;;;;;7.65;88.94;100604.36;125111;1312;107281;-80
2023/01/07 09:48:18;;;;;;;55.80;37.30;;;;;;;7.74;88.78;100605.30;125168;1315;107487;-78
2023/01/07 09:51:30;;;;;;;34.40;23.00;;;;;;;7.79;88.67;100606.13;125111;1316;107465;-79
2023/01/07 09:54:38;;;;;;;31.70;20.70;;;;;;;7.81;88.50;100600.75;125170;1316;107454;-77
2023/01/07 09:57:44;;;;;;;34.50;20.90;;;;;;;7.83;88.70;100601.84;125174;1312;107289;-79
2023/01/07 10:00:58;;;;;;;41.60;20.10;;;;;;;7.80;88.56;100603.34;125169;1312;107590;-79
2023/01/07 10:04:19;;;;;;;36.70;19.00;;;;;;;7.75;88.35;100603.08;125154;1313;107519;-79
2023/01/07 10:07:32;;;;;;;26.60;15.50;;;;;;;7.72;88.64;100604.02;125184;1310;107396;-77
2023/01/07 10:10:45;;;;;;;27.20;16.00;;;;;;;7.71;88.74;100600.02;125194;1313;107714;-78
2023/01/07 10:14:14;;;;;;;30.40;18.50;;;;;;;7.76;88.56;100600.98;125328;1316;107516;-78
2023/01/07 10:17:29;;;;;;;36.50;23.40;;;;;;;7.84;88.46;100598.06;125298;1311;107486;-78
2023/01/07 10:20:43;;;;;;;39.20;22.80;;;;;;;7.86;88.46;100590.30;125283;1316;107415;-77
2023/01/07 10:23:53;;;;;;;34.60;17.50;;;;;;;7.84;88.32;100590.77;125096;1312;107510;-78
2023/01/07 10:27:04;;;;;;;35.30;18.20;;;;;;;7.83;88.54;100589.13;125270;1316;108585;-77
2023/01/07 10:30:18;;;;;;;34.30;18.80;;;;;;;7.84;88.42;100584.39;125323;1308;107654;-77
2023/01/07 10:33:28;;;;;;;38.40;22.00;;;;;;;7.86;88.41;100581.58;125214;1312;107427;-77
2023/01/07 10:36:38;;;;;;;60.10;31.30;;;;;;;7.88;88.29;100578.59;125104;1312;106413;-77
2023/01/07 10:39:56;;;;;;;33.50;19.70;;;;;;;7.94;88.39;100576.55;125142;1312;107266;-77
2023/01/07 10:43:07;;;;;;;35.80;22.90;;;;;;;8.02;88.34;100577.40;125208;1311;107335;-80
2023/01/07 10:46:39;;;;;;;23.60;13.50;;;;;;;8.04;88.22;100578.71;125221;1316;107554;-77
2023/01/07 10:50:01;;;;;;;33.00;17.60;;;;;;;7.98;88.05;100579.89;125267;1312;107532;-79
2023/01/07 10:53:18;;;;;;;36.10;22.60;;;;;;;7.99;88.06;100579.50;125103;1311;106906;-76
2023/01/07 10:56:30;;;;;;;40.50;23.50;;;;;;;8.01;87.94;100575.38;125127;1312;108729;-75
2023/01/07 10:59:36;;;;;;;32.60;19.40;;;;;;;8.03;87.94;100580.38;125252;1316;107655;-76
2023/01/07 11:02:49;;;;;;;26.10;15.90;;;;;;;8.05;88.01;100578.42;125122;1316;107579;-76
2023/01/07 11:06:02;;;;;;;28.00;17.20;;;;;;;8.10;87.94;100575.40;125236;1311;107146;-77
2023/01/07 11:09:14;;;;;;;34.40;19.10;;;;;;;8.10;87.95;100576.80;125202;1316;106567;-78
2023/01/07 11:12:27;;;;;;;27.80;15.40;;;;;;;8.09;87.87;100575.77;125786;1292;107297;-77
2023/01/07 11:15:42;;;;;;;33.30;14.70;;;;;;;8.07;87.77;100573.67;125389;1301;107993;-77
2023/01/07 11:18:57;;;;;;;31.90;17.30;;;;;;;8.05;87.79;100566.70;125359;1303;107613;-76
2023/01/07 11:22:03;;;;;;;36.50;20.50;;;;;;;8.05;87.65;100560.16;126019;1295;107396;-79
2023/01/07 11:25:29;;;;;;;28.60;17.40;;;;;;;8.04;87.61;100560.07;126160;1292;107579;-80
2023/01/07 11:28:36;;;;;;;27.40;17.00;;;;;;;8.01;87.36;100559.48;125704;1302;107637;-82
2023/01/07 11:31:52;;;;;;;33.10;20.30;;;;;;;7.97;87.47;100556.73;125636;1302;108610;-79
2023/01/07 11:35:05;;;;;;;22.00;13.10;;;;;;;7.92;87.36;100552.96;125612;1289;107603;-78
2023/01/07 11:38:28;;;;;;;19.60;11.50;;;;;;;7.83;87.15;100546.02;125581;1303;107667;-78
2023/01/07 11:41:35;;;;;;;26.00;15.60;;;;;;;7.78;87.25;100544.38;126129;1296;108085;-83
2023/01/07 11:44:41;;;;;;;25.90;16.10;;;;;;;7.76;87.37;100546.85;126453;1300;106277;-79
2023/01/07 11:48:01;;;;;;;24.30;15.00;;;;;;;7.75;87.38;100540.52;125783;1295;108535;-80
2023/01/07 11:51:09;;;;;;;25.50;16.10;;;;;;;7.75;87.33;100536.30;126369;1295;108842;-76
2023/01/07 11:54:22;;;;;;;25.70;15.80;;;;;;;7.75;87.45;100535.91;125877;1302;107577;-77
2023/01/07 11:57:28;;;;;;;23.10;12.70;;;;;;;7.74;87.33;100532.33;125597;1302;107732;-80
2023/01/07 12:00:34;;;;;;;22.60;11.90;;;;;;;7.79;87.56;100530.33;125883;1296;107561;-78
2023/01/07 12:03:42;;;;;;;22.60;14.60;;;;;;;7.85;87.60;100527.30;125849;1300;107978;-80
2023/01/07 12:06:50;;;;;;;23.00;13.90;;;;;;;7.91;87.39;100523.14;126048;1292;107430;-78
2023/01/07 12:09:56;;;;;;;21.00;14.10;;;;;;;7.94;87.35;100523.19;126093;1300;107576;-75
2023/01/07 12:13:04;;;;;;;21.50;14.50;;;;;;;7.95;87.40;100513.73;125947;1302;108128;-76
2023/01/07 12:16:10;;;;;;;21.30;13.90;;;;;;;7.95;87.40;100512.87;125888;1302;107640;-76
2023/01/07 12:19:40;;;;;;;21.90;14.60;;;;;;;7.97;87.33;100511.98;126056;1296;107400;-76
2023/01/07 12:22:57;;;;;;;20.50;12.70;;;;;;;7.94;87.10;100509.42;125035;1318;105887;-76
2023/01/07 12:26:10;;;;;;;25.80;15.50;;;;;;;7.90;87.14;100506.02;125074;1313;107418;-78
2023/01/07 12:29:27;;;;;;;47.00;30.40;;;;;;;7.92;87.27;100501.98;125655;1310;107468;-78
2023/01/07 12:32:50;;;;;;;49.80;33.80;;;;;;;7.96;87.46;100497.13;125529;1299;106970;-77
2023/01/07 12:36:01;;;;;;;43.80;30.60;;;;;;;8.00;87.06;100491.52;125314;1300;107285;-79
2023/01/07 12:39:14;;;;;;;31.90;20.50;;;;;;;8.02;87.34;100490.64;125452;1311;107620;-77
2023/01/07 12:42:24;;;;;;;29.10;19.00;;;;;;;8.05;87.32;100488.20;125352;1295;107724;-76
2023/01/07 12:45:34;;;;;;;21.20;13.80;;;;;;;8.11;87.19;100487.40;125435;1317;107436;-79
2023/01/07 12:48:45;;;;;;;23.70;14.50;;;;;;;8.15;87.26;100483.14;125542;1301;107560;-78
2023/01/07 12:51:56;;;;;;;47.20;33.10;;;;;;;8.20;87.42;100479.30;125335;1302;107559;-75
2023/01/07 12:55:07;;;;;;;45.00;33.30;;;;;;;8.27;87.28;100478.20;125168;1313;107429;-75
2023/01/07 12:58:21;;;;;;;28.90;19.50;;;;;;;8.34;87.16;100479.96;125459;1316;107550;-77
2023/01/07 13:01:34;;;;;;;25.00;16.50;;;;;;;8.35;87.03;100476.98;125171;1312;107524;-78
2023/01/07 13:04:50;;;;;;;24.40;18.00;;;;;;;8.35;86.96;100477.73;125200;1311;106620;-76
2023/01/07 13:08:00;;;;;;;21.50;14.10;;;;;;;8.33;87.01;100474.47;125198;1311;108324;-78
2023/01/07 13:11:15;;;;;;;24.50;16.50;;;;;;;8.30;87.02;100469.98;125239;1312;108584;-77
2023/01/07 13:14:25;;;;;;;17.90;11.80;;;;;;;8.29;87.13;100466.87;125182;1316;107460;-76
2023/01/07 13:17:32;;;;;;;21.00;13.90;;;;;;;8.31;87.15;100463.48;125218;1316;107598;-76
2023/01/07 13:20:52;;;;;;;21.10;14.30;;;;;;;8.34;87.11;100461.70;125388;1303;108758;-76
2023/01/07 13:24:20;;;;;;;19.90;14.10;;;;;;;8.35;86.95;100456.41;125305;1309;107480;-77
2023/01/07 13:27:36;;;;;;;21.90;14.60;;;;;;;8.38;86.81;100458.67;125379;1312;107664;-77
2023/01/07 13:30:54;;;;;;;22.50;14.30;;;;;;;8.37;86.76;100461.08;125397;1303;106356;-77
2023/01/07 13:34:16;;;;;;;21.50;14.50;;;;;;;8.38;86.89;100458.09;125264;1313;107520;-76
2023/01/07 13:37:43;;;;;;;18.90;11.70;;;;;;;8.40;86.89;100454.58;125537;1304;107336;-76
2023/01/07 13:41:13;;;;;;;22.30;13.10;;;;;;;8.44;86.96;100459.77;125367;1309;107391;-77
2023/01/07 13:44:46;;;;;;;30.70;18.50;;;;;;;8.45;86.67;100460.89;125254;1312;107573;-77
2023/01/07 13:47:54;;;;;;;23.50;16.30;;;;;;;8.38;86.66;100452.61;125294;1310;107516;-79
2023/01/07 13:51:02;;;;;;;24.00;15.40;;;;;;;8.29;86.74;100449.49;125337;1311;106336;-79
2023/01/07 13:54:09;;;;;;;25.80;15.90;;;;;;;8.19;86.66;100445.70;125382;1312;107425;-79
2023/01/07 13:57:43;;;;;;;26.00;16.60;;;;;;;8.10;86.79;100448.16;125166;1313;107397;-77
2023/01/07 14:01:04;;;;;;;26.70;17.00;;;;;;;7.93;86.67;100452.59;125364;1308;107832;-77
2023/01/07 14:04:46;;;;;;;21.90;12.40;;;;;;;7.76;86.78;100454.41;125191;1295;107503;-77
2023/01/07 14:07:55;;;;;;;23.50;14.70;;;;;;;7.65;86.91;100459.35;125080;1312;106548;-77
2023/01/07 14:11:01;;;;;;;24.70;15.30;;;;;;;7.69;87.09;100457.52;125347;1295;107550;-78
2023/01/07 14:14:14;;;;;;;247.40;70.50;;;;;;;7.70;87.03;100466.76;125211;1295;107769;-77
2023/01/07 14:17:31;;;;;;;185.70;55.80;;;;;;;7.66;86.83;100473.27;125199;1295;108667;-77
2023/01/07 14:20:45;;;;;;;166.50;50.70;;;;;;;7.57;86.90;100470.52;125327;1303;107287;-78